createdAt,value
2022-12-28T00:02:49.484Z,2.20
2022-12-28T00:07:56.434Z,2.20
2022-12-28T00:13:03.416Z,2.10
2022-12-28T00:18:10.822Z,2.10
2022-12-28T00:23:17.980Z,2.10
2022-12-28T00:28:25.744Z,2.00
2022-12-28T00:33:33.710Z,2.10
2022-12-28T00:38:40.731Z,2.10
2022-12-28T00:43:47.929Z,2.20
2022-12-28T00:48:55.459Z,2.10
2022-12-28T00:54:02.572Z,2.10
2022-12-28T00:59:09.531Z,2.00
2022-12-28T01:04:16.753Z,1.90
2022-12-28T01:09:23.893Z,1.80
2022-12-28T01:14:30.670Z,1.80
2022-12-28T01:19:37.461Z,1.90
2022-12-28T01:24:44.281Z,1.90
2022-12-28T01:29:51.385Z,2.00
2022-12-28T01:34:58.678Z,1.90
2022-12-28T01:40:05.786Z,1.70
2022-12-28T01:45:23.417Z,1.80
2022-12-28T01:50:31.695Z,1.90
2022-12-28T01:55:41.727Z,2.00
2022-12-28T02:00:48.718Z,2.10
2022-12-28T02:05:59.082Z,2.10
2022-12-28T02:11:07.693Z,1.70
2022-12-28T02:16:15.181Z,1.80
2022-12-28T02:21:35.778Z,1.70
2022-12-28T02:27:03.612Z,1.70
2022-12-28T02:32:44.434Z,1.70
2022-12-28T02:37:57.729Z,1.60
2022-12-28T02:43:05.515Z,1.80
2022-12-28T02:48:29.985Z,1.70
2022-12-28T02:53:43.919Z,1.60
2022-12-28T02:59:13.355Z,1.70
2022-12-28T03:04:30.555Z,1.60
2022-12-28T03:09:44.330Z,1.30
2022-12-28T03:14:54.247Z,1.30
2022-12-28T03:20:22.342Z,1.20
2022-12-28T03:25:53.399Z,1.20
2022-12-28T03:31:07.301Z,1.30
2022-12-28T03:36:29.723Z,1.40
2022-12-28T03:41:43.589Z,1.40
2022-12-28T03:47:06.146Z,1.40
2022-12-28T03:52:14.226Z,1.40
2022-12-28T03:57:21.013Z,1.30
2022-12-28T04:02:27.758Z,1.20
2022-12-28T04:07:34.524Z,1.10
2022-12-28T04:12:41.332Z,1.10
2022-12-28T04:17:48.020Z,1.10
2022-12-28T04:22:54.785Z,1.00
2022-12-28T04:28:02.568Z,1.10
2022-12-28T04:33:09.320Z,1.00
2022-12-28T04:38:16.001Z,1.10
2022-12-28T04:43:22.679Z,1.10
2022-12-28T04:48:29.668Z,1.00
2022-12-28T04:53:41.194Z,1.00
2022-12-28T04:58:48.352Z,0.90
2022-12-28T05:03:58.274Z,1.00
2022-12-28T05:09:04.700Z,1.10
2022-12-28T05:14:11.345Z,1.00
2022-12-28T05:19:18.084Z,1.00
2022-12-28T05:24:24.959Z,0.90
2022-12-28T05:29:31.623Z,1.10
2022-12-28T05:34:38.306Z,1.10
2022-12-28T05:39:44.865Z,0.80
2022-12-28T05:44:51.624Z,1.00
2022-12-28T05:49:58.233Z,0.80
2022-12-28T05:55:04.996Z,0.80
2022-12-28T06:00:13.436Z,0.70
2022-12-28T06:05:20.086Z,0.70
2022-12-28T06:10:26.870Z,0.80
2022-12-28T06:15:33.516Z,0.80
2022-12-28T06:20:40.180Z,0.60
2022-12-28T06:25:46.765Z,0.60
2022-12-28T06:30:53.469Z,0.90
2022-12-28T06:36:00.267Z,0.90
2022-12-28T06:41:14.292Z,0.80
2022-12-28T06:46:19.250Z,0.70
2022-12-28T06:51:32.436Z,0.80
2022-12-28T06:56:39.685Z,1.00
2022-12-28T07:01:46.489Z,1.20
2022-12-28T07:06:53.278Z,1.00
2022-12-28T07:12:00.017Z,1.00
2022-12-28T07:17:06.785Z,1.10
2022-12-28T07:22:13.542Z,1.10
2022-12-28T07:27:20.197Z,1.20
2022-12-28T07:32:26.945Z,1.20
2022-12-28T07:37:33.712Z,1.30
2022-12-28T07:42:40.335Z,1.30
2022-12-28T07:47:47.008Z,1.30
2022-12-28T07:52:53.740Z,1.40
2022-12-28T07:58:00.856Z,1.30
2022-12-28T08:03:07.595Z,1.30
2022-12-28T08:08:14.271Z,1.40
2022-12-28T08:13:20.978Z,1.30
2022-12-28T08:18:28.361Z,1.50
2022-12-28T08:23:35.946Z,1.70
2022-12-28T08:28:43.878Z,1.80
2022-12-28T08:33:51.568Z,1.90
2022-12-28T08:39:01.489Z,1.90
2022-12-28T08:44:08.498Z,2.10
2022-12-28T08:49:15.530Z,2.10
2022-12-28T08:54:22.453Z,2.10
2022-12-28T08:59:29.205Z,2.10
2022-12-28T09:04:36.822Z,2.20
2022-12-28T09:09:43.520Z,2.40
2022-12-28T09:14:50.189Z,2.60
2022-12-28T09:19:56.895Z,2.80
2022-12-28T09:25:03.818Z,2.90
2022-12-28T09:30:12.802Z,3.10
2022-12-28T09:35:19.518Z,3.10
2022-12-28T09:40:26.283Z,3.30
2022-12-28T09:45:35.159Z,3.20
2022-12-28T09:50:42.676Z,3.40
2022-12-28T09:55:57.725Z,3.40
2022-12-28T10:01:06.477Z,3.50
2022-12-28T10:06:17.248Z,3.60
2022-12-28T10:11:28.081Z,3.80
2022-12-28T10:16:36.982Z,3.90
2022-12-28T10:21:44.175Z,3.90
2022-12-28T10:26:51.172Z,4.10
2022-12-28T10:32:13.723Z,4.00
2022-12-28T10:37:21.707Z,4.00
2022-12-28T10:42:41.480Z,3.90
2022-12-28T10:47:55.224Z,4.00
2022-12-28T10:53:02.109Z,4.00
2022-12-28T10:58:29.450Z,4.10
2022-12-28T11:03:37.886Z,4.10
2022-12-28T11:08:47.620Z,4.10
2022-12-28T11:14:18.316Z,4.20
2022-12-28T11:19:26.804Z,4.20
2022-12-28T11:24:39.368Z,4.30
2022-12-28T11:29:46.763Z,4.30
2022-12-28T11:34:56.205Z,4.50
2022-12-28T11:40:03.417Z,4.60
2022-12-28T11:45:19.129Z,4.50
2022-12-28T11:50:44.835Z,4.50
2022-12-28T11:56:08.400Z,4.40
2022-12-28T12:01:35.751Z,4.20
2022-12-28T12:06:49.975Z,4.30
2022-12-28T12:12:06.484Z,4.30
2022-12-28T12:17:26.667Z,4.50
2022-12-28T12:22:40.911Z,4.60
2022-12-28T12:28:03.483Z,4.70
2022-12-28T12:33:20.666Z,4.80
2022-12-28T12:38:34.748Z,4.70
2022-12-28T12:44:30.746Z,4.80
2022-12-28T12:50:15.162Z,4.70
2022-12-28T12:55:41.063Z,4.80
2022-12-28T13:01:26.985Z,4.90
2022-12-28T13:06:35.548Z,5.00
2022-12-28T13:11:42.739Z,5.00
2022-12-28T13:16:53.807Z,4.90
2022-12-28T13:22:00.833Z,4.60
2022-12-28T13:27:12.685Z,4.70
2022-12-28T13:32:38.236Z,4.80
2022-12-28T13:37:42.744Z,4.80
2022-12-28T13:43:16.246Z,4.70
2022-12-28T13:48:24.816Z,4.70
2022-12-28T13:53:34.177Z,5.00
2022-12-28T13:58:48.650Z,4.90
2022-12-28T14:04:50.446Z,4.90
2022-12-28T14:09:18.152Z,4.70
2022-12-28T14:14:25.339Z,4.60
2022-12-28T14:19:32.823Z,4.40
2022-12-28T14:24:42.590Z,4.60
2022-12-28T14:29:49.742Z,4.40
2022-12-28T14:35:00.826Z,4.20
2022-12-28T14:40:12.265Z,4.10
2022-12-28T14:46:06.592Z,4.00
2022-12-28T14:51:04.476Z,3.90
2022-12-28T14:56:19.694Z,3.90
2022-12-28T15:01:29.176Z,3.80
2022-12-28T15:06:36.488Z,3.50
2022-12-28T15:11:43.206Z,3.50
2022-12-28T15:16:50.402Z,3.30
2022-12-28T15:21:57.124Z,3.30
2022-12-28T15:27:05.269Z,3.10
2022-12-28T15:32:12.233Z,3.00
2022-12-28T15:37:19.634Z,3.00
2022-12-28T15:42:26.560Z,3.00
2022-12-28T15:47:33.536Z,2.90
2022-12-28T15:52:41.218Z,2.80
2022-12-28T15:57:47.912Z,2.70
2022-12-28T16:02:55.803Z,2.70
2022-12-28T16:08:02.742Z,2.60
2022-12-28T16:13:10.364Z,2.60
2022-12-28T16:18:17.045Z,2.60
2022-12-28T16:23:23.896Z,2.60
2022-12-28T16:28:31.167Z,2.60
2022-12-28T16:33:38.012Z,2.60
2022-12-28T16:38:45.191Z,2.50
2022-12-28T16:43:52.698Z,2.40
2022-12-28T16:49:02.139Z,2.50
2022-12-28T16:54:09.988Z,2.50
2022-12-28T16:59:26.174Z,2.40
2022-12-28T17:04:33.365Z,2.30
2022-12-28T17:09:43.031Z,2.30
2022-12-28T17:14:50.301Z,2.20
2022-12-28T17:19:57.299Z,2.20
2022-12-28T17:25:04.023Z,2.30
2022-12-28T17:30:11.803Z,2.20
2022-12-28T17:35:18.591Z,2.10
2022-12-28T17:40:25.609Z,2.20
2022-12-28T17:45:32.920Z,2.20
2022-12-28T17:50:46.294Z,2.20
2022-12-28T17:55:53.049Z,2.20
2022-12-28T18:01:01.162Z,2.10
2022-12-28T18:06:09.923Z,2.30
2022-12-28T18:11:17.293Z,2.20
2022-12-28T18:16:24.653Z,1.90
2022-12-28T18:21:31.945Z,2.00
2022-12-28T18:26:39.229Z,2.10
2022-12-28T18:31:46.310Z,2.00
2022-12-28T18:36:53.316Z,2.10
2022-12-28T18:42:00.200Z,2.00
2022-12-28T18:47:06.940Z,1.90
2022-12-28T18:52:13.777Z,1.90
2022-12-28T18:57:20.579Z,1.90
2022-12-28T19:02:27.566Z,1.90
2022-12-28T19:07:34.403Z,1.90
2022-12-28T19:12:42.744Z,2.00
2022-12-28T19:17:50.595Z,2.10
2022-12-28T19:22:57.292Z,2.10
2022-12-28T19:28:04.253Z,2.00
2022-12-28T19:33:11.406Z,2.00
2022-12-28T19:38:18.721Z,2.00
2022-12-28T19:43:26.130Z,1.90
2022-12-28T19:48:32.737Z,1.90
2022-12-28T19:53:40.446Z,1.90
2022-12-28T19:58:48.089Z,2.00
2022-12-28T20:03:56.033Z,2.10
2022-12-28T20:09:03.886Z,1.90
2022-12-28T20:14:13.704Z,1.70
2022-12-28T20:19:20.576Z,1.70
2022-12-28T20:24:27.255Z,1.80
2022-12-28T20:29:34.164Z,1.80
2022-12-28T20:34:41.302Z,1.90
2022-12-28T20:39:48.053Z,1.90
2022-12-28T20:44:56.537Z,1.90
2022-12-28T20:50:04.998Z,1.90
2022-12-28T20:55:13.020Z,2.00
2022-12-28T21:00:20.172Z,2.10
2022-12-28T21:05:27.495Z,1.80
2022-12-28T21:10:34.219Z,1.90
2022-12-28T21:15:43.176Z,1.80
2022-12-28T21:20:54.826Z,1.90
2022-12-28T21:26:08.011Z,2.00
2022-12-28T21:31:15.341Z,1.90
2022-12-28T21:36:22.213Z,1.90
2022-12-28T21:41:46.929Z,2.10
2022-12-28T21:46:55.491Z,1.70
2022-12-28T21:52:03.580Z,1.80
2022-12-28T21:57:13.164Z,1.70
2022-12-28T22:02:39.239Z,1.90
2022-12-28T22:07:46.292Z,1.70
2022-12-28T22:12:53.994Z,1.70
2022-12-28T22:18:05.461Z,1.80
2022-12-28T22:23:12.319Z,2.00
2022-12-28T22:28:19.245Z,2.30
2022-12-28T22:33:26.198Z,2.10
2022-12-28T22:38:33.042Z,2.20
2022-12-28T22:43:40.347Z,2.20
2022-12-28T22:48:47.185Z,2.20
2022-12-28T22:53:53.980Z,2.50
2022-12-28T22:59:04.693Z,2.30
2022-12-28T23:04:09.754Z,2.00
2022-12-28T23:09:16.667Z,2.20
2022-12-28T23:14:43.659Z,2.40
2022-12-28T23:20:08.059Z,2.40
2022-12-28T23:25:40.391Z,2.40
2022-12-28T23:30:49.619Z,2.20
2022-12-28T23:35:56.737Z,2.10
2022-12-28T23:41:25.983Z,2.00
2022-12-28T23:46:33.018Z,1.90
2022-12-28T23:51:40.048Z,2.00
2022-12-28T23:56:47.758Z,1.90
